createdAt,value
2022-12-12T00:00:39.972Z,0.25
2022-12-12T00:03:06.443Z,0.24
2022-12-12T00:05:32.909Z,0.21
2022-12-12T00:07:59.861Z,0.18
2022-12-12T00:10:26.338Z,0.17
2022-12-12T00:12:52.730Z,0.19
2022-12-12T00:15:19.245Z,0.18
2022-12-12T00:17:45.673Z,0.21
2022-12-12T00:20:12.026Z,0.20
2022-12-12T00:22:38.396Z,0.22
2022-12-12T00:25:05.367Z,0.24
2022-12-12T00:27:33.485Z,0.22
2022-12-12T00:29:59.930Z,0.18
2022-12-12T00:32:26.680Z,0.20
2022-12-12T00:34:53.028Z,0.21
2022-12-12T00:37:19.482Z,0.23
2022-12-12T00:39:46.327Z,0.20
2022-12-12T00:42:12.870Z,0.16
2022-12-12T00:44:39.399Z,0.13
2022-12-12T00:47:05.923Z,0.14
2022-12-12T00:49:32.366Z,0.16
2022-12-12T00:51:58.760Z,0.16
2022-12-12T00:54:25.304Z,0.21
2022-12-12T00:56:51.691Z,0.17
2022-12-12T00:59:19.707Z,0.17
2022-12-12T01:01:46.927Z,0.15
2022-12-12T01:04:13.462Z,0.13
2022-12-12T01:06:40.113Z,0.15
2022-12-12T01:09:06.587Z,0.15
2022-12-12T01:11:32.944Z,0.18
2022-12-12T01:13:59.360Z,0.16
2022-12-12T01:16:26.552Z,0.15
2022-12-12T01:18:53.338Z,0.12
2022-12-12T01:21:20.373Z,0.09
2022-12-12T01:23:47.340Z,0.08
2022-12-12T01:26:17.380Z,0.08
2022-12-12T01:28:44.704Z,0.08
2022-12-12T01:31:12.177Z,0.06
2022-12-12T01:33:38.870Z,0.05
2022-12-12T01:36:06.495Z,0.07
2022-12-12T01:38:32.906Z,0.07
2022-12-12T01:40:59.438Z,0.09
2022-12-12T01:43:25.914Z,0.10
2022-12-12T01:46:32.902Z,0.08
2022-12-12T01:49:09.629Z,0.08
2022-12-12T01:51:37.268Z,0.07
2022-12-12T01:54:29.217Z,0.02
2022-12-12T01:56:58.371Z,0.05
2022-12-12T01:59:26.196Z,0.04
2022-12-12T02:01:54.224Z,0.05
2022-12-12T02:04:22.550Z,0.06
2022-12-12T02:06:51.184Z,0.05
2022-12-12T02:09:20.092Z,0.06
2022-12-12T02:11:49.643Z,0.05
2022-12-12T02:14:22.423Z,0.05
2022-12-12T02:16:52.778Z,0.03
2022-12-12T02:19:25.092Z,0.05
2022-12-12T02:21:55.377Z,0.05
2022-12-12T02:25:07.369Z,0.07
2022-12-12T02:27:52.598Z,0.08
2022-12-12T02:30:43.272Z,0.06
2022-12-12T02:33:30.821Z,0.08
2022-12-12T02:36:12.814Z,0.08
2022-12-12T02:39:04.433Z,0.07
2022-12-12T02:41:47.331Z,0.09
2022-12-12T02:44:29.119Z,0.08
2022-12-12T02:47:07.866Z,0.07
2022-12-12T02:49:44.527Z,0.07
2022-12-12T02:52:12.394Z,0.06
2022-12-12T02:54:38.868Z,0.04
2022-12-12T02:57:14.403Z,0.05
2022-12-12T02:59:45.067Z,0.02
2022-12-12T03:02:41.670Z,0.04
2022-12-12T03:05:38.379Z,0.02
2022-12-12T03:08:29.488Z,-0.01
2022-12-12T03:11:06.375Z,0.02
2022-12-12T03:13:51.514Z,-0.01
2022-12-12T03:16:31.209Z,-0.03
2022-12-12T03:19:05.586Z,-0.06
2022-12-12T03:21:39.813Z,-0.03
2022-12-12T03:24:13.349Z,-0.04
2022-12-12T03:26:48.789Z,-0.05
2022-12-12T03:29:19.933Z,-0.06
2022-12-12T03:31:52.849Z,-0.08
2022-12-12T03:34:23.978Z,-0.08
2022-12-12T03:36:56.443Z,-0.10
2022-12-12T03:39:38.574Z,-0.14
2022-12-12T03:42:11.357Z,-0.15
2022-12-12T03:44:44.274Z,-0.16
2022-12-12T03:47:15.812Z,-0.19
2022-12-12T03:50:04.960Z,-0.21
2022-12-12T03:52:41.763Z,-0.24
2022-12-12T03:55:22.844Z,-0.27
2022-12-12T03:57:57.921Z,-0.33
2022-12-12T04:00:24.854Z,-0.33
2022-12-12T04:02:58.832Z,-0.33
2022-12-12T04:06:01.446Z,-0.35
2022-12-12T04:08:28.554Z,-0.41
2022-12-12T04:11:23.691Z,-0.43
2022-12-12T04:14:21.943Z,-0.48
2022-12-12T04:16:50.691Z,-0.52
2022-12-12T04:19:48.562Z,-0.56
2022-12-12T04:22:40.888Z,-0.61
2022-12-12T04:25:19.179Z,-0.69
2022-12-12T04:27:52.926Z,-0.75
2022-12-12T04:30:19.509Z,-0.83
2022-12-12T04:32:52.581Z,-0.90
2022-12-12T04:35:30.291Z,-0.97
2022-12-12T04:38:00.590Z,-1.04
2022-12-12T04:40:36.625Z,-1.13
2022-12-12T04:43:31.562Z,-1.22
2022-12-12T04:46:02.656Z,-1.30
2022-12-12T04:48:44.063Z,-1.36
2022-12-12T04:51:14.782Z,-1.42
2022-12-12T04:53:48.749Z,-1.49
2022-12-12T04:56:19.482Z,-1.56
2022-12-12T04:58:45.955Z,-1.60
2022-12-12T05:01:49.582Z,-1.66
2022-12-12T05:04:33.741Z,-1.71
2022-12-12T05:07:07.511Z,-1.75
2022-12-12T05:09:35.303Z,-1.80
2022-12-12T05:12:01.891Z,-1.84
2022-12-12T05:14:30.704Z,-1.85
2022-12-12T05:17:05.366Z,-1.88
2022-12-12T05:19:31.842Z,-1.93
2022-12-12T05:21:58.253Z,-1.96
2022-12-12T05:24:30.661Z,-1.99
2022-12-12T05:26:58.486Z,-2.02
2022-12-12T05:29:25.042Z,-2.05
2022-12-12T05:31:51.574Z,-2.08
2022-12-12T05:34:18.303Z,-2.12
2022-12-12T05:36:44.726Z,-2.15
2022-12-12T05:39:11.109Z,-2.19
2022-12-12T05:41:37.491Z,-2.23
2022-12-12T05:44:03.940Z,-2.27
2022-12-12T05:46:30.364Z,-2.29
2022-12-12T05:48:56.822Z,-2.31
2022-12-12T05:51:23.179Z,-2.33
2022-12-12T05:53:49.567Z,-2.34
2022-12-12T05:56:15.983Z,-2.39
2022-12-12T05:58:42.646Z,-2.44
2022-12-12T06:01:10.282Z,-2.45
2022-12-12T06:03:36.991Z,-2.48
2022-12-12T06:06:03.848Z,-2.51
2022-12-12T06:08:30.307Z,-2.52
2022-12-12T06:10:57.241Z,-2.52
2022-12-12T06:13:23.728Z,-2.53
2022-12-12T06:15:50.133Z,-2.59
2022-12-12T06:18:16.602Z,-2.62
2022-12-12T06:20:43.012Z,-2.65
2022-12-12T06:23:09.434Z,-2.65
2022-12-12T06:25:35.774Z,-2.66
2022-12-12T06:28:02.182Z,-2.69
2022-12-12T06:30:28.634Z,-2.72
2022-12-12T06:32:55.076Z,-2.72
2022-12-12T06:35:21.535Z,-2.73
2022-12-12T06:37:48.552Z,-2.73
2022-12-12T06:40:15.485Z,-2.77
2022-12-12T06:42:46.403Z,-2.80
2022-12-12T06:45:15.423Z,-2.82
2022-12-12T06:47:42.054Z,-2.82
2022-12-12T06:50:08.873Z,-2.84
2022-12-12T06:52:35.212Z,-2.89
2022-12-12T06:55:01.723Z,-2.90
2022-12-12T06:57:29.005Z,-2.93
2022-12-12T06:59:55.515Z,-2.94
2022-12-12T07:02:27.671Z,-2.95
2022-12-12T07:04:56.298Z,-2.98
2022-12-12T07:07:22.681Z,-3.03
2022-12-12T07:09:49.127Z,-3.03
2022-12-12T07:12:15.501Z,-3.05
2022-12-12T07:14:41.880Z,-3.08
2022-12-12T07:17:08.275Z,-3.08
2022-12-12T07:19:34.706Z,-3.13
2022-12-12T07:22:07.517Z,-3.16
2022-12-12T07:24:36.028Z,-3.17
2022-12-12T07:27:02.397Z,-3.18
2022-12-12T07:29:28.749Z,-3.20
2022-12-12T07:31:55.175Z,-3.23
2022-12-12T07:34:21.547Z,-3.26
2022-12-12T07:36:47.905Z,-3.30
2022-12-12T07:39:20.161Z,-3.31
2022-12-12T07:41:47.297Z,-3.33
2022-12-12T07:44:13.665Z,-3.34
2022-12-12T07:46:40.096Z,-3.37
2022-12-12T07:49:06.609Z,-3.38
2022-12-12T07:51:33.071Z,-3.38
2022-12-12T07:53:59.515Z,-3.40
2022-12-12T07:56:25.927Z,-3.41
2022-12-12T07:58:53.462Z,-3.41
2022-12-12T08:01:22.479Z,-3.42
2022-12-12T08:03:49.898Z,-3.40
2022-12-12T08:06:17.427Z,-3.39
2022-12-12T08:08:45.435Z,-3.38
2022-12-12T08:11:14.062Z,-3.37
2022-12-12T08:13:41.284Z,-3.34
2022-12-12T08:16:13.552Z,-3.32
2022-12-12T08:18:40.091Z,-3.29
2022-12-12T08:21:08.601Z,-3.27
2022-12-12T08:23:35.036Z,-3.26
2022-12-12T08:26:09.646Z,-3.22
2022-12-12T08:28:36.862Z,-3.19
2022-12-12T08:31:04.076Z,-3.16
2022-12-12T08:33:30.642Z,-3.15
2022-12-12T08:35:57.054Z,-3.13
2022-12-12T08:38:23.436Z,-3.09
2022-12-12T08:40:50.093Z,-3.06
2022-12-12T08:43:16.686Z,-3.04
2022-12-12T08:45:43.092Z,-2.99
2022-12-12T08:48:11.922Z,-2.96
2022-12-12T08:50:40.507Z,-2.93
2022-12-12T08:53:06.922Z,-2.93
2022-12-12T08:55:33.330Z,-2.89
2022-12-12T08:58:00.084Z,-2.86
2022-12-12T09:00:26.463Z,-2.82
2022-12-12T09:02:53.052Z,-2.79
2022-12-12T09:05:19.490Z,-2.77
2022-12-12T09:07:46.026Z,-2.73
2022-12-12T09:10:12.431Z,-2.72
2022-12-12T09:12:41.955Z,-2.68
2022-12-12T09:15:09.700Z,-2.66
2022-12-12T09:17:36.274Z,-2.66
2022-12-12T09:20:03.470Z,-2.65
2022-12-12T09:22:29.942Z,-2.59
2022-12-12T09:24:56.286Z,-2.57
2022-12-12T09:27:22.685Z,-2.55
2022-12-12T09:29:49.036Z,-2.55
2022-12-12T09:32:16.678Z,-2.53
2022-12-12T09:34:45.192Z,-2.52
2022-12-12T09:37:11.631Z,-2.48
2022-12-12T09:39:38.106Z,-2.47
2022-12-12T09:42:17.665Z,-2.46
2022-12-12T09:44:44.220Z,-2.45
2022-12-12T09:47:20.099Z,-2.42
2022-12-12T09:49:53.336Z,-2.40
2022-12-12T09:52:31.813Z,-2.38
2022-12-12T09:55:14.636Z,-2.36
2022-12-12T09:57:53.215Z,-2.35
2022-12-12T10:00:19.686Z,-2.32
2022-12-12T10:03:07.626Z,-2.29
2022-12-12T10:05:42.002Z,-2.26
2022-12-12T10:08:22.777Z,-2.24
2022-12-12T10:11:04.636Z,-2.22
2022-12-12T10:13:34.488Z,-2.20
2022-12-12T10:16:14.743Z,-2.18
2022-12-12T10:18:45.416Z,-2.16
2022-12-12T10:21:21.384Z,-2.14
2022-12-12T10:23:53.812Z,-2.13
2022-12-12T10:26:30.639Z,-2.13
2022-12-12T10:29:22.189Z,-2.11
2022-12-12T10:32:00.297Z,-2.08
2022-12-12T10:34:40.900Z,-2.06
2022-12-12T10:37:26.866Z,-2.04
2022-12-12T10:40:14.608Z,-2.03
2022-12-12T10:43:02.374Z,-1.98
2022-12-12T10:45:40.906Z,-1.96
2022-12-12T10:48:07.514Z,-1.92
2022-12-12T10:50:52.846Z,-1.88
2022-12-12T10:53:20.900Z,-1.87
2022-12-12T10:56:05.108Z,-1.85
2022-12-12T10:58:43.379Z,-1.76
2022-12-12T11:04:24.655Z,-1.68
2022-12-12T11:06:53.546Z,-1.61
2022-12-12T11:09:23.010Z,-1.57
2022-12-12T11:11:59.117Z,-1.49
2022-12-12T11:14:50.646Z,-1.44
2022-12-12T11:17:27.857Z,-1.39
2022-12-12T11:19:57.084Z,-1.33
2022-12-12T11:22:26.942Z,-1.24
2022-12-12T11:24:54.548Z,-1.22
2022-12-12T11:27:25.244Z,-1.19
2022-12-12T11:29:54.315Z,-1.19
2022-12-12T11:32:24.566Z,-1.15
2022-12-12T11:34:57.466Z,-1.13
2022-12-12T11:37:28.920Z,-1.11
2022-12-12T11:39:57.093Z,-1.07
2022-12-12T11:42:32.206Z,-1.02
2022-12-12T11:45:21.474Z,-0.97
2022-12-12T11:47:48.417Z,-0.96
2022-12-12T11:50:25.316Z,-0.92
2022-12-12T11:52:55.123Z,-0.89
2022-12-12T11:55:47.878Z,-0.92
2022-12-12T11:58:25.975Z,-0.95
2022-12-12T12:01:46.149Z,-0.92
2022-12-12T12:04:37.643Z,-0.94
2022-12-12T12:07:47.478Z,-0.89
2022-12-12T12:10:46.421Z,-0.87
2022-12-12T12:13:46.920Z,-0.88
2022-12-12T12:16:25.991Z,-0.89
2022-12-12T12:19:10.759Z,-0.85
2022-12-12T12:22:28.475Z,-0.85
2022-12-12T12:25:08.788Z,-0.87
2022-12-12T12:28:03.886Z,-0.85
2022-12-12T12:30:49.150Z,-0.80
2022-12-12T12:33:24.105Z,-0.83
2022-12-12T12:36:10.032Z,-0.85
2022-12-12T12:38:48.603Z,-0.82
2022-12-12T12:41:22.193Z,-0.78
2022-12-12T12:43:57.721Z,-0.77
2022-12-12T12:46:48.744Z,-0.79
2022-12-12T12:49:32.919Z,-0.80
2022-12-12T12:52:06.230Z,-0.80
2022-12-12T12:54:49.211Z,-0.81
2022-12-12T12:57:27.913Z,-0.82
2022-12-12T12:59:58.783Z,-0.79
2022-12-12T13:02:33.561Z,-0.79
2022-12-12T13:05:14.767Z,-0.76
2022-12-12T13:07:59.956Z,-0.76
2022-12-12T13:10:31.400Z,-0.78
2022-12-12T13:13:06.092Z,-0.81
2022-12-12T13:15:42.055Z,-0.81
2022-12-12T13:18:14.235Z,-0.81
2022-12-12T13:21:05.293Z,-0.79
2022-12-12T13:24:09.937Z,-0.80
2022-12-12T13:27:02.999Z,-0.79
2022-12-12T13:29:48.489Z,-0.80
2022-12-12T13:33:08.883Z,-0.80
2022-12-12T13:35:45.870Z,-0.79
2022-12-12T13:38:31.348Z,-0.78
2022-12-12T13:41:04.241Z,-0.78
2022-12-12T13:43:43.644Z,-0.77
2022-12-12T13:46:23.327Z,-0.77
2022-12-12T13:49:11.230Z,-0.76
2022-12-12T13:51:43.852Z,-0.75
2022-12-12T13:54:13.749Z,-0.77
2022-12-12T13:56:45.762Z,-0.79
2022-12-12T13:59:27.333Z,-0.78
2022-12-12T14:01:56.718Z,-0.81
2022-12-12T14:04:44.430Z,-0.82
2022-12-12T14:07:21.806Z,-0.85
2022-12-12T14:09:51.364Z,-0.87
2022-12-12T14:12:31.025Z,-0.91
2022-12-12T14:15:01.647Z,-0.92
2022-12-12T14:17:34.294Z,-0.94
2022-12-12T14:20:05.896Z,-0.94
2022-12-12T14:22:38.466Z,-0.96
2022-12-12T14:25:13.887Z,-0.99
2022-12-12T14:27:49.345Z,-1.01
2022-12-12T14:30:25.922Z,-1.03
2022-12-12T14:33:07.150Z,-1.03
2022-12-12T14:35:48.987Z,-1.06
2022-12-12T14:38:31.275Z,-1.07
2022-12-12T14:41:03.826Z,-1.10
2022-12-12T14:43:35.957Z,-1.14
2022-12-12T14:46:03.694Z,-1.16
2022-12-12T14:48:32.657Z,-1.20
2022-12-12T14:51:15.811Z,-1.22
2022-12-12T14:53:47.886Z,-1.26
2022-12-12T14:56:18.243Z,-1.33
2022-12-12T14:58:53.845Z,-1.37
2022-12-12T15:01:28.142Z,-1.41
2022-12-12T15:03:54.948Z,-1.46
2022-12-12T15:06:34.404Z,-1.50
2022-12-12T15:09:16.741Z,-1.55
2022-12-12T15:11:44.231Z,-1.59
2022-12-12T15:14:26.437Z,-1.64
2022-12-12T15:17:05.762Z,-1.70
2022-12-12T15:19:40.472Z,-1.76
2022-12-12T15:22:29.846Z,-1.83
2022-12-12T15:24:59.626Z,-1.91
2022-12-12T15:27:41.913Z,-1.98
2022-12-12T15:30:33.663Z,-2.04
2022-12-12T15:33:01.632Z,-2.09
2022-12-12T15:35:28.879Z,-2.14
2022-12-12T15:38:00.732Z,-2.19
2022-12-12T15:40:32.449Z,-2.24
2022-12-12T15:43:02.035Z,-2.28
2022-12-12T15:45:37.751Z,-2.32
2022-12-12T15:48:06.169Z,-2.37
2022-12-12T15:50:51.065Z,-2.42
2022-12-12T15:53:27.747Z,-2.48
2022-12-12T15:55:59.239Z,-2.52
2022-12-12T15:58:36.703Z,-2.59
2022-12-12T16:01:07.114Z,-2.62
2022-12-12T16:03:34.333Z,-2.67
2022-12-12T16:06:16.175Z,-2.71
2022-12-12T16:08:52.096Z,-2.70
2022-12-12T16:11:49.448Z,-2.72
2022-12-12T16:14:40.131Z,-2.78
2022-12-12T16:17:25.239Z,-2.81
2022-12-12T16:19:56.180Z,-2.86
2022-12-12T16:22:49.394Z,-2.91
2022-12-12T16:25:23.091Z,-2.92
2022-12-12T16:28:12.585Z,-2.93
2022-12-12T16:30:42.021Z,-2.96
2022-12-12T16:33:36.790Z,-3.00
2022-12-12T16:36:11.289Z,-3.02
2022-12-12T16:38:40.067Z,-3.06
2022-12-12T16:41:10.823Z,-3.11
2022-12-12T16:43:39.051Z,-3.14
2022-12-12T16:46:06.063Z,-3.17
2022-12-12T16:48:35.147Z,-3.19
2022-12-12T16:51:06.963Z,-3.23
2022-12-12T16:53:34.215Z,-3.25
2022-12-12T16:56:00.804Z,-3.27
2022-12-12T16:58:27.327Z,-3.27
2022-12-12T17:00:54.100Z,-3.29
2022-12-12T17:03:23.305Z,-3.33
2022-12-12T17:05:50.622Z,-3.38
2022-12-12T17:08:18.042Z,-3.43
2022-12-12T17:10:46.225Z,-3.44
2022-12-12T17:13:18.694Z,-3.48
2022-12-12T17:15:46.154Z,-3.52
2022-12-12T17:18:12.967Z,-3.57
2022-12-12T17:20:39.939Z,-3.61
2022-12-12T17:23:27.957Z,-3.62
2022-12-12T17:25:59.102Z,-3.65
2022-12-12T17:28:30.770Z,-3.66
2022-12-12T17:30:57.183Z,-3.70
2022-12-12T17:33:23.611Z,-3.74
2022-12-12T17:36:01.432Z,-3.80
2022-12-12T17:38:28.087Z,-3.84
2022-12-12T17:40:56.634Z,-3.87
2022-12-12T17:43:24.504Z,-3.92
2022-12-12T17:46:04.831Z,-3.95
2022-12-12T17:48:34.064Z,-3.98
2022-12-12T17:51:03.633Z,-4.01
2022-12-12T17:53:32.418Z,-4.02
2022-12-12T17:56:01.379Z,-4.03
2022-12-12T17:58:38.679Z,-4.06
2022-12-12T18:01:31.705Z,-4.06
2022-12-12T18:04:00.349Z,-4.11
2022-12-12T18:06:30.130Z,-4.14
2022-12-12T18:08:56.896Z,-4.17
2022-12-12T18:11:26.876Z,-4.21
2022-12-12T18:13:58.105Z,-4.30
2022-12-12T18:16:24.777Z,-4.35
2022-12-12T18:18:51.906Z,-4.35
2022-12-12T18:21:51.749Z,-4.35
2022-12-12T18:24:08.017Z,-4.39
2022-12-12T18:26:34.568Z,-4.43
2022-12-12T18:29:03.579Z,-4.45
2022-12-12T18:31:30.529Z,-4.49
2022-12-12T18:33:57.901Z,-4.54
2022-12-12T18:36:27.350Z,-4.57
2022-12-12T18:38:55.892Z,-4.61
2022-12-12T18:41:22.505Z,-4.63
2022-12-12T18:43:49.054Z,-4.65
2022-12-12T18:46:18.183Z,-4.67
2022-12-12T18:48:46.640Z,-4.72
2022-12-12T18:51:17.365Z,-4.74
2022-12-12T18:53:44.550Z,-4.75
2022-12-12T18:56:17.921Z,-4.74
2022-12-12T18:58:44.867Z,-4.78
2022-12-12T19:01:14.440Z,-4.82
2022-12-12T19:03:42.414Z,-4.85
2022-12-12T19:06:11.510Z,-4.88
2022-12-12T19:08:37.922Z,-4.90
2022-12-12T19:11:04.750Z,-4.90
2022-12-12T19:13:31.465Z,-4.91
2022-12-12T19:16:07.144Z,-4.92
2022-12-12T19:18:34.031Z,-4.93
2022-12-12T19:21:19.068Z,-4.93
2022-12-12T19:23:45.814Z,-4.98
2022-12-12T19:26:15.578Z,-5.04
2022-12-12T19:28:42.989Z,-5.06
2022-12-12T19:31:15.518Z,-5.10
2022-12-12T19:33:43.411Z,-5.07
2022-12-12T19:36:21.107Z,-5.08
2022-12-12T19:38:48.417Z,-5.07
2022-12-12T19:41:17.115Z,-5.05
2022-12-12T19:43:45.365Z,-5.03
2022-12-12T19:46:15.467Z,-5.05
2022-12-12T19:48:42.895Z,-5.07
2022-12-12T19:51:17.703Z,-5.05
2022-12-12T19:53:47.340Z,-5.06
2022-12-12T19:56:16.415Z,-5.08
2022-12-12T19:58:43.167Z,-5.14
2022-12-12T20:01:20.760Z,-5.20
2022-12-12T20:03:52.434Z,-5.25
2022-12-12T20:06:19.362Z,-5.28
2022-12-12T20:08:46.569Z,-5.33
2022-12-12T20:11:15.969Z,-5.35
2022-12-12T20:13:43.183Z,-5.35
2022-12-12T20:16:12.951Z,-5.34
2022-12-12T20:18:41.428Z,-5.32
2022-12-12T20:21:09.454Z,-5.32
2022-12-12T20:23:43.832Z,-5.30
2022-12-12T20:26:18.815Z,-5.34
2022-12-12T20:28:46.290Z,-5.38
2022-12-12T20:31:18.533Z,-5.40
2022-12-12T20:33:45.569Z,-5.41
2022-12-12T20:36:14.367Z,-5.41
2022-12-12T20:38:41.186Z,-5.45
2022-12-12T20:41:13.755Z,-5.50
2022-12-12T20:43:40.367Z,-5.52
2022-12-12T20:46:15.878Z,-5.57
2022-12-12T20:48:42.775Z,-5.61
2022-12-12T20:51:31.023Z,-5.65
2022-12-12T20:54:03.726Z,-5.64
2022-12-12T20:56:30.793Z,-5.64
2022-12-12T20:58:59.857Z,-5.63
2022-12-12T21:01:31.492Z,-5.66
2022-12-12T21:03:59.534Z,-5.70
2022-12-12T21:06:31.798Z,-5.76
2022-12-12T21:09:03.600Z,-5.78
2022-12-12T21:11:30.162Z,-5.79
2022-12-12T21:13:57.220Z,-5.81
2022-12-12T21:16:33.422Z,-5.81
2022-12-12T21:19:06.721Z,-5.81
2022-12-12T21:21:33.346Z,-5.81
2022-12-12T21:24:00.252Z,-5.85
2022-12-12T21:26:29.814Z,-5.88
2022-12-12T21:28:57.845Z,-5.93
2022-12-12T21:31:33.674Z,-5.97
2022-12-12T21:34:00.465Z,-5.98
2022-12-12T21:36:28.202Z,-6.01
2022-12-12T21:38:56.481Z,-6.03
2022-12-12T21:41:23.599Z,-6.04
2022-12-12T21:43:50.853Z,-6.08
2022-12-12T21:46:20.606Z,-6.10
2022-12-12T21:49:07.755Z,-6.08
2022-12-12T21:51:35.182Z,-6.07
2022-12-12T21:54:03.207Z,-6.10
2022-12-12T21:56:30.438Z,-6.12
2022-12-12T21:58:57.803Z,-6.14
2022-12-12T22:01:24.353Z,-6.14
2022-12-12T22:03:50.866Z,-6.17
2022-12-12T22:06:25.961Z,-6.18
2022-12-12T22:08:55.101Z,-6.20
2022-12-12T22:11:34.369Z,-6.23
2022-12-12T22:14:09.682Z,-6.22
2022-12-12T22:16:36.083Z,-6.22
2022-12-12T22:19:06.442Z,-6.24
2022-12-12T22:21:33.565Z,-6.26
2022-12-12T22:24:00.170Z,-6.28
2022-12-12T22:26:47.210Z,-6.30
2022-12-12T22:29:16.749Z,-6.31
2022-12-12T22:31:44.749Z,-6.32
2022-12-12T22:34:17.615Z,-6.30
2022-12-12T22:36:45.083Z,-6.33
2022-12-12T22:39:15.630Z,-6.33
2022-12-12T22:41:42.023Z,-6.37
2022-12-12T22:44:08.468Z,-6.40
2022-12-12T22:46:39.253Z,-6.41
2022-12-12T22:49:11.406Z,-6.40
2022-12-12T22:51:37.936Z,-6.40
2022-12-12T22:54:05.557Z,-6.38
2022-12-12T22:56:35.060Z,-6.37
2022-12-12T22:59:02.008Z,-6.41
2022-12-12T23:01:28.970Z,-6.46
2022-12-12T23:03:55.939Z,-6.49
2022-12-12T23:06:31.320Z,-6.52
2022-12-12T23:09:01.037Z,-6.58
2022-12-12T23:11:29.712Z,-6.62
2022-12-12T23:14:03.000Z,-6.64
2022-12-12T23:16:31.015Z,-6.67
2022-12-12T23:18:58.612Z,-6.70
2022-12-12T23:21:25.949Z,-6.70
2022-12-12T23:23:52.905Z,-6.68
2022-12-12T23:26:23.262Z,-6.71
2022-12-12T23:28:50.500Z,-6.75
2022-12-12T23:31:20.722Z,-6.78
2022-12-12T23:33:47.927Z,-6.77
2022-12-12T23:36:15.420Z,-6.78
2022-12-12T23:38:42.342Z,-6.78
2022-12-12T23:41:11.574Z,-6.81
2022-12-12T23:43:38.332Z,-6.82
2022-12-12T23:46:08.156Z,-6.81
2022-12-12T23:48:35.382Z,-6.85
2022-12-12T23:51:01.828Z,-6.88
2022-12-12T23:53:31.376Z,-6.90
2022-12-12T23:56:03.915Z,-6.91
2022-12-12T23:58:30.408Z,-6.91
